Time;durP1;ratioP1;P1;durP2;ratioP2;P2;SDS_P1;SDS_P2;PMS_P1;PMS_P2;Temp;Humidity;BMP_temperature;BMP_pressure;BME280_temperature;BME280_humidity;BME280_pressure;Samples;Min_cycle;Max_cycle;Signal;HPM_P1;HPM_P2
2022/04/20 00:00:00;;;;;;;3.80;2.65;;;12.20;40.60;;;11.95;35.91;100253.38;5026219;28;20046;-73
2022/04/20 00:02:27;;;;;;;3.10;2.33;;;12.10;41.00;;;11.87;35.82;100241.28;5029033;28;20054;-73
2022/04/20 00:04:55;;;;;;;2.83;2.17;;;12.00;41.00;;;11.88;36.05;100240.38;5028887;28;20521;-73
2022/04/20 00:07:22;;;;;;;3.58;2.20;;;12.10;41.20;;;11.85;36.17;100236.97;5030545;28;20052;-73
2022/04/20 00:09:49;;;;;;;3.08;2.20;;;11.90;41.10;;;11.80;36.05;100241.53;5027780;28;20168;-72
2022/04/20 00:12:17;;;;;;;5.97;2.55;;;11.90;41.30;;;11.76;36.22;100246.91;5024591;28;20044;-73
2022/04/20 00:14:44;;;;;;;2.95;1.90;;;11.80;41.20;;;11.67;36.50;100247.19;5022542;28;20044;-72
2022/04/20 00:17:11;;;;;;;3.42;2.42;;;11.80;41.60;;;11.62;36.62;100239.41;5026427;28;20042;-73
2022/04/20 00:19:38;;;;;;;3.30;2.20;;;11.80;41.70;;;11.57;36.60;100237.84;5024537;28;20091;-73
2022/04/20 00:22:05;;;;;;;2.83;2.22;;;11.70;41.50;;;11.54;36.77;100241.44;5027231;28;20060;-73
2022/04/20 00:24:32;;;;;;;4.50;2.10;;;11.70;41.60;;;11.57;36.37;100246.59;5028695;28;20033;-74
2022/04/20 00:26:59;;;;;;;4.43;2.50;;;11.60;41.60;;;11.55;36.54;100239.63;5025852;28;20038;-73
2022/04/20 00:29:27;;;;;;;4.43;2.53;;;11.60;41.70;;;11.49;37.16;100246.81;5020647;28;20041;-73
2022/04/20 00:31:54;;;;;;;2.72;2.40;;;11.50;41.90;;;11.41;36.95;100247.97;5006660;28;20053;-74
2022/04/20 00:34:21;;;;;;;3.92;2.22;;;11.50;42.30;;;11.39;37.27;100250.63;5008699;28;20069;-73
2022/04/20 00:36:52;;;;;;;3.63;2.40;;;11.50;42.10;;;11.26;37.56;100250.13;5023764;28;20601;-73
2022/04/20 00:39:20;;;;;;;6.55;2.35;;;11.50;42.40;;;11.35;37.43;100249.00;5022482;28;20057;-72
2022/04/20 00:41:48;;;;;;;4.63;2.58;;;11.40;42.30;;;11.26;37.33;100251.91;5018378;28;20034;-73
2022/04/20 00:44:15;;;;;;;4.00;2.40;;;11.40;42.10;;;11.25;37.40;100251.03;5025365;28;20482;-73
2022/04/20 00:46:49;;;;;;;7.93;3.65;;;11.40;42.30;;;11.21;37.81;100252.03;5025389;28;20114;-74
2022/04/20 00:49:17;;;;;;;5.00;2.63;;;11.30;42.50;;;11.19;37.82;100253.88;5025620;28;20068;-73
2022/04/20 00:51:57;;;;;;;5.45;2.20;;;11.20;42.40;;;11.19;37.82;100248.59;5003851;28;20049;-73
2022/04/20 00:54:26;;;;;;;3.58;2.28;;;11.20;42.40;;;11.15;37.85;100249.56;5044534;28;20457;-73
2022/04/20 00:56:53;;;;;;;4.63;2.22;;;11.20;42.60;;;11.04;38.25;100247.25;5028537;28;20046;-72
2022/04/20 00:59:25;;;;;;;4.60;2.63;;;11.10;42.80;;;11.08;38.30;100246.25;5028086;28;20505;-73
2022/04/20 01:01:52;;;;;;;4.38;2.33;;;11.10;42.80;;;10.99;38.37;100260.53;5043567;28;20041;-74
2022/04/20 01:04:21;;;;;;;4.72;2.05;;;11.40;43.00;;;11.00;38.08;100253.50;5008386;28;20098;-74
2022/04/20 01:07:13;;;;;;;4.10;2.30;;;11.00;42.90;;;10.95;38.72;100255.41;5008312;28;20037;-73
2022/04/20 01:09:58;;;;;;;5.18;3.42;;;11.00;43.10;;;10.89;38.70;100246.75;5022708;28;20115;-74
2022/04/20 01:13:01;;;;;;;3.78;2.78;;;10.90;43.10;;;10.74;39.38;100242.78;4999889;28;20054;-74
2022/04/20 01:15:46;;;;;;;6.28;2.40;;;11.00;43.50;;;10.77;38.79;100244.44;5040302;28;20735;-73
2022/04/20 01:18:22;;;;;;;3.90;2.47;;;10.90;43.40;;;10.69;39.42;100246.44;5035307;28;20379;-73
2022/04/20 01:20:58;;;;;;;4.53;2.42;;;10.80;43.50;;;10.71;39.52;100256.03;5023484;28;20045;-73
2022/04/20 01:23:48;;;;;;;;;;;10.80;43.70;;;10.71;39.15;100253.41;5019145;28;20485;-72
2022/04/20 01:26:50;;;;;;;6.95;2.60;;;10.70;43.50;;;10.61;39.27;100249.28;5019042;28;19944;-72
2022/04/20 01:29:38;;;;;;;3.15;2.28;;;10.70;43.50;;;10.58;39.46;100250.22;5026156;28;20576;-73
2022/04/20 01:32:24;;;;;;;4.35;2.53;;;10.70;43.90;;;10.57;40.13;100247.63;5021840;28;20052;-73
2022/04/20 01:35:26;;;;;;;3.13;2.22;;;10.70;43.90;;;10.55;40.27;100249.44;5018042;28;20133;-73
2022/04/20 01:37:54;;;;;;;3.25;2.60;;;10.70;44.10;;;10.51;40.39;100251.28;4987514;28;20038;-72
2022/04/20 01:40:21;;;;;;;5.13;2.80;;;10.60;44.00;;;10.40;40.84;100254.16;5025125;28;20527;-72
2022/04/20 01:42:48;;;;;;;3.15;2.40;;;10.80;44.40;;;10.47;40.60;100262.78;5024314;28;20046;-72
2022/04/20 01:45:15;;;;;;;5.10;2.42;;;10.50;44.10;;;10.37;40.57;100254.22;5026852;28;20048;-73
2022/04/20 01:47:54;;;;;;;4.13;2.30;;;12.00;45.10;;;10.36;40.73;100247.22;5025995;28;20041;-73
2022/04/20 01:53:45;;;;;;;3.72;2.35;;;10.40;44.60;;;10.20;41.38;100241.50;5027915;28;20061;-72
2022/04/20 01:56:23;;;;;;;4.03;2.53;;;10.40;45.20;;;10.12;41.98;100241.69;5007830;28;20096;-72
2022/04/20 01:59:28;;;;;;;3.72;2.30;;;10.30;45.20;;;10.05;42.12;100246.22;5027849;28;20089;-73
2022/04/20 02:02:34;;;;;;;4.18;2.67;;;10.30;45.50;;;10.02;41.83;100245.44;5021979;28;20526;-72
2022/04/20 02:05:24;;;;;;;4.13;2.90;;;10.10;45.30;;;9.96;42.60;100256.09;5026039;28;20077;-73
2022/04/20 02:08:09;;;;;;;3.83;3.33;;;10.10;45.70;;;9.95;42.44;100247.34;5022755;28;20406;-73
2022/04/20 02:10:54;;;;;;;3.47;3.08;;;10.70;45.90;;;9.88;42.80;100259.75;5022372;28;20422;-74
2022/04/20 02:13:21;;;;;;;3.95;3.08;;;11.20;46.40;;;9.90;42.78;100251.84;5038525;28;20506;-73
2022/04/20 02:15:50;;;;;;;5.82;3.20;;;10.00;45.80;;;9.87;43.05;100260.66;5025701;28;20247;-73
2022/04/20 02:18:46;;;;;;;3.70;2.58;;;10.00;45.90;;;9.85;42.86;100251.94;5023489;28;20041;-72
2022/04/20 02:21:30;;;;;;;6.80;3.22;;;10.00;45.90;;;9.87;42.96;100255.41;5027792;28;20041;-72
2022/04/20 02:23:57;;;;;;;3.13;2.50;;;9.90;45.90;;;9.74;43.36;100256.56;5024878;28;20055;-73
2022/04/20 02:26:24;;;;;;;4.55;2.90;;;9.90;46.20;;;9.63;43.39;100256.81;5011147;28;20029;-73
2022/04/20 02:28:51;;;;;;;4.68;2.78;;;10.70;46.50;;;9.59;44.09;100256.00;4999964;28;20466;-72
2022/04/20 02:31:18;;;;;;;3.35;2.50;;;9.80;46.40;;;9.60;44.24;100257.75;5018602;28;20135;-72
2022/04/20 02:33:46;;;;;;;3.35;2.67;;;9.80;46.60;;;9.57;44.21;100249.91;5017325;28;20042;-73
2022/04/20 02:36:13;;;;;;;3.88;2.58;;;9.70;46.60;;;9.58;43.79;100249.03;5041135;28;20083;-73
2022/04/20 02:38:40;;;;;;;5.82;2.80;;;9.70;46.60;;;9.53;44.06;100264.03;5023145;28;20041;-74
2022/04/20 02:41:08;;;;;;;5.50;3.13;;;9.70;46.70;;;9.46;44.75;100258.03;5022995;28;20045;-74
2022/04/20 02:43:36;;;;;;;5.28;2.95;;;9.60;46.70;;;9.44;44.52;100261.59;5018220;28;20046;-74
2022/04/20 02:46:03;;;;;;;4.15;2.63;;;9.60;47.00;;;9.39;45.25;100264.34;5007264;28;20033;-75
2022/04/20 02:48:31;;;;;;;8.35;3.15;;;9.60;47.20;;;9.34;45.02;100264.41;5021755;28;20486;-74
2022/04/20 02:50:58;;;;;;;3.17;2.80;;;9.50;47.10;;;9.31;45.34;100266.22;5007014;28;20581;-74
2022/04/20 02:53:26;;;;;;;3.85;2.83;;;9.40;47.40;;;9.15;46.23;100261.28;5023568;28;20045;-75
2022/04/20 02:55:53;;;;;;;3.88;2.85;;;10.30;48.30;;;9.13;46.30;100264.84;4999757;28;20145;-74
2022/04/20 02:58:20;;;;;;;3.15;2.50;;;9.30;47.70;;;9.00;47.26;100259.84;5021103;28;20132;-75
2022/04/20 03:00:54;;;;;;;3.63;2.70;;;9.30;48.20;;;9.00;47.01;100261.59;5022633;28;20080;-74
2022/04/20 03:03:28;;;;;;;3.40;2.70;;;9.20;48.00;;;8.94;47.94;100263.44;5031719;28;20042;-74
2022/04/20 03:06:02;;;;;;;5.60;2.90;;;9.20;48.30;;;8.85;48.69;100263.59;5041908;28;21381;-74
2022/04/20 03:08:31;;;;;;;3.80;2.78;;;9.10;48.70;;;8.88;48.56;100265.31;4999192;28;20050;-74
2022/04/20 03:10:58;;;;;;;3.10;2.58;;;9.00;48.60;;;8.79;49.06;100266.34;5023355;28;20100;-77
2022/04/20 03:13:26;;;;;;;3.90;3.00;;;9.00;49.10;;;8.73;49.73;100266.44;5023626;28;20045;-74
2022/04/20 03:15:54;;;;;;;6.45;3.03;;;9.00;49.20;;;8.67;50.85;100275.31;5014725;28;20053;-76
2022/04/20 03:18:21;;;;;;;3.55;2.53;;;8.90;49.50;;;8.61;50.86;100273.66;5021867;28;20037;-74
2022/04/20 03:20:50;;;;;;;4.78;2.90;;;8.90;49.50;;;8.59;51.18;100274.56;5023403;28;20092;-75
2022/04/20 03:23:18;;;;;;;;;;;8.80;49.80;;;8.59;51.89;100280.69;5016974;28;20461;-74
2022/04/20 03:25:50;;;;;;;5.43;3.10;;;8.70;50.00;;;8.45;52.65;100280.03;5040266;28;19921;-75
2022/04/20 03:28:49;;;;;;;4.13;2.75;;;10.00;51.10;;;8.41;52.72;100287.06;5013099;28;20053;-77
2022/04/20 03:31:17;;;;;;;3.85;2.83;;;8.70;50.30;;;8.41;53.91;100280.94;5011710;28;20458;-74
2022/04/20 03:33:44;;;;;;;4.82;2.88;;;8.60;50.80;;;8.32;53.67;100284.59;5036409;28;20498;-74
2022/04/20 03:36:11;;;;;;;3.88;3.08;;;8.50;51.00;;;8.25;53.89;100280.34;5024910;28;20114;-74
2022/04/20 03:38:38;;;;;;;2.72;2.20;;;8.50;50.70;;;8.27;52.20;100284.66;5002635;28;20069;-75
2022/04/20 03:41:05;;;;;;;3.63;2.60;;;8.50;50.60;;;8.25;53.98;100286.44;5022540;28;20045;-74
2022/04/20 03:43:33;;;;;;;4.03;2.78;;;8.50;51.00;;;8.22;54.38;100286.50;5006383;28;20537;-77
2022/04/20 03:46:00;;;;;;;4.95;2.65;;;8.40;51.20;;;8.19;54.76;100284.78;5025261;28;20044;-74
2022/04/20 03:48:27;;;;;;;5.75;2.85;;;8.40;51.50;;;8.08;55.65;100286.72;5025062;28;20042;-74
2022/04/20 03:50:54;;;;;;;4.63;3.03;;;8.40;51.90;;;8.08;56.26;100289.34;5007164;28;20128;-74
2022/04/20 03:53:21;;;;;;;4.90;2.72;;;8.30;52.10;;;8.08;55.68;100289.34;5005081;28;20072;-75
2022/04/20 03:55:54;;;;;;;3.15;2.60;;;8.80;52.40;;;8.07;55.89;100293.69;5027527;28;20467;-76
2022/04/20 03:58:21;;;;;;;5.85;2.80;;;8.20;52.10;;;8.08;56.36;100295.44;5022427;28;20052;-74
2022/04/20 04:00:49;;;;;;;3.65;2.97;;;8.20;52.30;;;8.05;56.68;100297.25;5022420;28;20103;-74
2022/04/20 04:03:17;;;;;;;4.35;2.75;;;8.20;52.70;;;8.02;56.65;100295.53;5046712;28;20413;-75
2022/04/20 04:05:45;;;;;;;3.45;2.92;;;8.20;52.80;;;7.96;57.17;100290.41;5018056;28;20037;-74
2022/04/20 04:08:20;;;;;;;4.65;3.15;;;8.10;52.90;;;7.88;57.73;100294.88;5012931;28;20457;-74
2022/04/20 04:10:47;;;;;;;3.70;2.67;;;8.10;53.60;;;7.88;57.86;100298.38;5027312;28;20046;-75
2022/04/20 04:13:15;;;;;;;4.88;3.25;;;8.10;53.70;;;7.85;58.48;100293.13;5027680;28;20426;-75
2022/04/20 04:15:47;;;;;;;5.00;3.00;;;8.10;53.80;;;7.89;57.47;100294.84;5006693;28;20506;-74
2022/04/20 04:18:14;;;;;;;4.72;3.08;;;8.10;53.90;;;7.89;57.20;100291.34;5021279;28;20038;-74
2022/04/20 04:20:45;;;;;;;5.88;2.85;;;8.00;54.00;;;7.82;58.33;100281.88;5037210;28;20083;-75
2022/04/20 04:23:17;;;;;;;4.68;3.05;;;8.00;54.50;;;7.90;59.03;100287.84;5028274;28;20045;-76
2022/04/20 04:25:50;;;;;;;4.13;2.78;;;8.00;55.20;;;7.82;58.57;100289.72;5023582;28;20134;-75
2022/04/20 04:28:58;;;;;;;7.57;3.00;;;8.00;55.30;;;7.76;60.54;100288.91;5022231;28;20081;-74
2022/04/20 04:31:27;;;;;;;9.88;3.28;;;7.90;55.90;;;7.68;61.15;100285.53;5019105;28;20536;-74
2022/04/20 04:33:56;;;;;;;4.25;2.80;;;7.90;56.10;;;7.69;61.80;100295.13;5023743;28;20041;-74
2022/04/20 04:36:23;;;;;;;4.78;3.30;;;7.90;56.80;;;7.68;61.64;100282.91;5025159;28;20046;-75
2022/04/20 04:38:54;;;;;;;7.75;4.32;;;7.80;57.30;;;7.69;61.56;100295.13;5010069;28;20045;-75
2022/04/20 04:41:27;;;;;;;10.23;8.00;;;7.80;57.70;;;7.63;61.93;100293.44;5026969;28;20069;-74
2022/04/20 04:43:56;;;;;;;8.30;4.75;;;7.80;57.70;;;7.62;63.71;100296.94;5023783;28;20104;-74
2022/04/20 04:49:28;;;;;;;12.07;6.78;;;7.80;58.80;;;7.58;63.38;100297.00;5023587;28;20069;-79
2022/04/20 04:51:57;;;;;;;19.98;9.13;;;7.70;59.60;;;7.59;64.16;100296.13;5021718;28;20096;-75
2022/04/20 04:54:25;;;;;;;21.17;10.20;;;7.80;60.10;;;7.57;64.56;100298.78;5026938;28;20075;-75
2022/04/20 04:56:54;;;;;;;20.35;9.02;;;7.80;60.90;;;7.59;64.39;100299.63;5043579;28;20057;-76
2022/04/20 04:59:21;;;;;;;17.67;8.52;;;7.70;61.30;;;7.53;65.83;100297.06;5027692;28;20047;-75
2022/04/20 05:01:52;;;;;;;7.63;5.43;;;7.70;62.30;;;7.59;66.66;100302.22;5042097;28;20042;-75
2022/04/20 05:04:19;;;;;;;5.93;5.32;;;8.00;63.50;;;7.61;66.66;100299.56;5017584;28;20049;-75
2022/04/20 05:06:53;;;;;;;6.38;4.03;;;8.70;63.90;;;7.66;66.83;100305.66;5021880;28;21308;-75
2022/04/20 05:09:38;;;;;;;8.95;5.05;;;9.00;65.10;;;7.65;66.87;100310.00;5021357;28;20095;-75
2022/04/20 05:12:09;;;;;;;5.03;4.43;;;7.80;64.90;;;7.72;65.51;100308.16;5040580;28;20055;-75
2022/04/20 05:14:37;;;;;;;6.00;3.60;;;7.90;64.90;;;7.75;65.17;100313.34;5024542;28;20490;-76
2022/04/20 05:17:05;;;;;;;5.75;3.90;;;7.80;65.00;;;7.82;65.86;100311.53;5004887;28;20128;-76
2022/04/20 05:19:34;;;;;;;4.03;3.63;;;7.90;65.60;;;7.91;63.38;100321.00;5022470;28;20049;-74
2022/04/20 05:22:09;;;;;;;4.25;3.28;;;8.00;65.40;;;7.89;63.28;100312.31;5032752;28;20041;-75
2022/04/20 05:24:40;;;;;;;6.65;3.50;;;8.00;64.80;;;7.89;62.53;100314.94;5027284;28;20041;-74
2022/04/20 05:27:11;;;;;;;5.75;3.25;;;8.20;64.80;;;7.98;62.89;100311.31;5011263;28;20053;-75
2022/04/20 05:30:00;;;;;;;3.78;3.35;;;8.00;65.10;;;8.01;62.29;100309.53;5026531;28;20048;-74
2022/04/20 05:32:28;;;;;;;5.93;3.08;;;8.00;65.10;;;8.06;62.22;100315.56;5025795;28;20053;-75
2022/04/20 05:35:02;;;;;;;3.97;3.05;;;8.10;64.90;;;8.12;62.00;100314.59;5008225;28;20099;-76
2022/04/20 05:43:09;;;;;;;5.10;3.35;;;8.20;65.00;;;8.23;60.98;100320.56;5011013;28;20038;-75
2022/04/20 05:45:36;;;;;;;4.20;3.10;;;8.30;65.30;;;8.27;60.58;100315.25;5026957;28;20069;-74
2022/04/20 05:48:21;;;;;;;3.28;2.97;;;8.30;65.20;;;8.28;61.17;100317.88;5033594;28;20423;-76
2022/04/20 05:50:49;;;;;;;3.63;2.90;;;8.30;65.70;;;8.34;60.96;100316.88;5015772;28;20071;-74
2022/04/20 05:53:19;;;;;;;4.80;3.80;;;10.20;66.50;;;8.37;60.01;100320.34;5016766;28;20049;-75
2022/04/20 05:55:46;;;;;;;5.55;3.33;;;8.40;65.30;;;8.44;60.57;100328.13;5019683;28;20100;-75
2022/04/20 05:58:14;;;;;;;4.63;3.30;;;8.50;66.00;;;8.45;60.36;100324.59;5026882;28;20502;-75
2022/04/20 06:00:43;;;;;;;3.10;2.80;;;8.50;65.50;;;8.54;58.56;100324.47;5025522;28;20073;-75
2022/04/20 06:03:36;;;;;;;5.45;3.25;;;7.90;64.30;;;8.60;59.58;100324.41;5006857;28;20049;-74
2022/04/20 06:06:24;;;;;;;3.70;3.15;;;8.70;65.50;;;8.64;60.12;100326.06;5025515;28;20399;-74
2022/04/20 06:08:53;;;;;;;6.07;3.20;;;9.20;66.30;;;8.68;59.63;100326.88;5023420;28;20410;-75
2022/04/20 06:11:43;;;;;;;4.15;2.95;;;8.70;65.70;;;8.71;59.67;100325.94;5017923;28;20061;-74
2022/04/20 06:14:15;;;;;;;6.40;3.17;;;8.70;65.60;;;8.75;58.25;100320.63;5027313;28;20453;-74
2022/04/20 06:16:48;;;;;;;5.57;2.90;;;8.80;65.00;;;8.85;58.85;100326.56;5011409;28;21627;-74
2022/04/20 06:19:32;;;;;;;7.57;3.05;;;8.80;65.60;;;8.82;58.67;100313.53;5024403;28;20144;-75
2022/04/20 06:22:25;;;;;;;5.45;2.70;;;8.80;65.10;;;8.92;58.99;100316.84;5021225;28;20057;-75
2022/04/20 06:25:10;;;;;;;4.18;3.28;;;8.90;65.80;;;8.93;59.19;100321.19;5020904;28;20057;-74
2022/04/20 06:27:53;;;;;;;4.53;3.38;;;9.00;65.90;;;8.99;59.73;100321.09;5040745;28;20048;-75
2022/04/20 06:30:20;;;;;;;7.00;3.13;;;9.00;66.10;;;9.04;59.55;100319.25;5023652;28;20038;-75
2022/04/20 06:33:17;;;;;;;5.97;3.33;;;9.00;65.90;;;9.11;58.87;100322.63;4967597;28;20062;-74
2022/04/20 06:36:03;;;;;;;5.68;3.63;;;9.00;65.90;;;9.17;58.47;100326.91;5014942;28;20099;-73
2022/04/20 06:38:30;;;;;;;4.75;2.95;;;9.20;65.70;;;9.20;59.40;100326.84;5014204;28;20045;-73
2022/04/20 06:41:24;;;;;;;7.38;4.03;;;9.20;66.50;;;9.34;57.77;100321.31;5022733;28;21208;-73
2022/04/20 06:44:11;;;;;;;5.07;3.28;;;9.20;65.50;;;9.35;58.43;100318.66;5013619;28;20156;-73
2022/04/20 06:46:49;;;;;;;7.60;3.63;;;10.20;66.60;;;9.40;58.33;100320.31;5018547;28;20143;-74
2022/04/20 06:49:37;;;;;;;4.47;3.53;;;9.40;65.70;;;9.47;57.72;100319.31;4995987;28;20081;-73
2022/04/20 07:00:48;;;;;;;4.07;2.88;;;9.70;65.80;;;9.75;57.41;100322.22;5017400;28;20058;-74
2022/04/20 07:03:36;;;;;;;5.57;3.90;;;10.60;66.30;;;9.83;56.53;100313.31;4998898;28;20056;-75
2022/04/20 07:06:21;;;;;;;5.22;3.53;;;9.70;65.10;;;9.89;55.44;100321.06;4999389;28;20206;-74
2022/04/20 07:09:15;;;;;;;3.92;3.53;;;10.00;64.50;;;9.98;55.54;100317.38;5008461;28;20528;-74
2022/04/20 07:12:00;;;;;;;7.70;3.63;;;9.90;64.80;;;10.02;54.07;100316.41;5031697;28;20167;-74
2022/04/20 07:14:29;;;;;;;5.97;3.22;;;9.90;63.80;;;10.10;55.24;100319.72;5018216;28;20446;-75
2022/04/20 07:16:56;;;;;;;3.97;3.28;;;10.00;64.70;;;10.15;55.31;100314.38;5013380;28;20045;-74
2022/04/20 07:19:31;;;;;;;3.67;3.28;;;10.10;64.90;;;10.20;55.52;100318.59;5012546;28;20061;-74
2022/04/20 07:22:17;;;;;;;3.92;3.17;;;10.10;64.90;;;10.26;55.29;100314.97;5016730;28;20053;-74
2022/04/20 07:24:52;;;;;;;4.15;3.35;;;10.20;64.70;;;10.36;54.30;100318.22;5007276;28;20045;-74
2022/04/20 07:27:52;;;;;;;3.90;2.95;;;10.20;64.30;;;10.47;53.89;100318.88;5019463;28;20058;-74
2022/04/20 07:30:38;;;;;;;4.03;2.80;;;10.30;64.10;;;10.57;53.50;100324.78;5017673;28;20057;-75
2022/04/20 07:33:24;;;;;;;4.80;3.38;;;10.40;63.90;;;10.69;52.46;100320.13;5017098;28;20052;-76
2022/04/20 07:36:26;;;;;;;5.40;3.17;;;10.50;63.40;;;10.74;52.31;100319.09;5021598;28;20085;-74
2022/04/20 07:39:04;;;;;;;4.55;3.30;;;10.60;63.10;;;10.86;51.26;100327.59;5018088;28;20062;-74
2022/04/20 07:41:50;;;;;;;3.17;2.75;;;10.70;62.40;;;10.94;50.83;100319.50;5017857;28;20094;-76
2022/04/20 07:44:26;;;;;;;4.68;3.15;;;10.80;62.00;;;11.03;51.14;100314.84;5013686;28;20050;-75
2022/04/20 07:47:07;;;;;;;4.38;3.10;;;10.80;62.50;;;11.11;50.94;100322.53;5013827;28;20048;-74
2022/04/20 07:52:58;;;;;;;5.50;3.40;;;11.00;61.90;;;11.32;50.11;100323.72;5002972;28;20064;-74
2022/04/20 07:55:47;;;;;;;3.78;3.20;;;11.10;61.60;;;11.40;48.69;100333.19;5018306;28;20231;-72
2022/04/20 07:58:25;;;;;;;3.55;2.88;;;11.20;60.60;;;11.43;48.25;100325.19;5021487;28;20086;-74
2022/04/20 08:01:04;;;;;;;3.92;3.10;;;11.30;60.00;;;11.51;48.08;100317.94;5007087;28;20160;-75
2022/04/20 08:04:03;;;;;;;6.70;3.88;;;11.30;59.90;;;11.59;48.04;100326.47;5008716;28;20140;-74
2022/04/20 08:07:03;;;;;;;9.57;6.68;;;11.40;59.80;;;11.65;47.36;100317.53;5008389;28;20049;-74
2022/04/20 08:09:32;;;;;;;9.88;7.05;;;11.50;59.20;;;11.75;47.17;100312.84;5012586;28;20185;-77
2022/04/20 08:12:00;;;;;;;14.05;8.65;;;11.60;59.20;;;11.81;46.50;100317.06;5040848;28;20091;-76
2022/04/20 08:14:31;;;;;;;8.20;4.90;;;11.60;58.50;;;11.84;46.21;100314.34;5031500;28;20056;-76
2022/04/20 08:17:05;;;;;;;7.70;5.45;;;12.70;58.80;;;11.93;46.15;100316.69;5021804;28;20118;-77
2022/04/20 08:19:44;;;;;;;9.65;4.47;;;11.70;58.40;;;11.97;45.31;100313.06;5029478;28;20132;-76
2022/04/20 08:22:15;;;;;;;6.65;3.97;;;12.30;57.60;;;11.94;45.53;100312.28;5039077;28;20053;-76
2022/04/20 08:24:45;;;;;;;5.60;4.07;;;12.00;57.60;;;12.02;45.50;100321.75;5051767;28;20037;-77
2022/04/20 08:27:14;;;;;;;4.40;3.95;;;11.90;57.40;;;12.10;44.41;100317.97;5021217;28;20069;-78
2022/04/20 08:29:42;;;;;;;5.95;4.15;;;11.90;56.70;;;12.12;44.62;100311.75;5029164;28;20038;-78
2022/04/20 08:32:09;;;;;;;5.53;3.83;;;13.40;57.40;;;12.18;44.10;100315.97;5027286;28;20041;-76
2022/04/20 08:34:37;;;;;;;11.30;7.63;;;12.00;56.40;;;12.24;44.28;100323.69;5030342;28;20042;-77
2022/04/20 08:37:25;;;;;;;10.30;6.50;;;12.00;56.20;;;12.33;43.30;100318.13;5022938;28;20034;-78
2022/04/20 08:39:52;;;;;;;14.02;7.72;;;12.10;55.80;;;12.31;42.99;100327.84;5028464;28;20068;-77
2022/04/20 08:42:21;;;;;;;7.38;4.75;;;12.20;55.00;;;12.42;42.22;100324.88;5028655;28;20518;-78
2022/04/20 08:44:50;;;;;;;5.30;3.42;;;13.10;55.10;;;12.42;41.95;100314.34;5029169;28;20045;-78
2022/04/20 08:47:22;;;;;;;6.00;3.85;;;12.30;54.70;;;12.54;42.03;100313.06;5019792;28;20045;-77
2022/04/20 08:49:50;;;;;;;4.65;3.20;;;12.30;54.40;;;12.66;41.80;100313.56;5023595;28;20374;-78
2022/04/20 08:52:39;;;;;;;4.72;3.42;;;13.70;55.00;;;12.68;41.89;100309.94;5021246;28;20648;-77
2022/04/20 08:55:09;;;;;;;4.45;3.78;;;12.50;54.20;;;12.72;41.01;100319.50;5024616;28;20049;-77
2022/04/20 08:57:38;;;;;;;3.83;3.20;;;12.50;53.50;;;12.77;41.00;100316.69;5028096;28;20054;-76
2022/04/20 09:00:13;;;;;;;3.28;2.97;;;12.50;53.70;;;12.92;41.12;100317.97;5028200;28;20038;-77
2022/04/20 09:02:41;;;;;;;5.03;3.22;;;12.60;53.70;;;12.88;41.00;100319.84;5028056;28;20525;-77
2022/04/20 09:05:09;;;;;;;5.05;3.35;;;12.60;53.40;;;13.00;40.67;100312.41;5029098;28;20092;-78
2022/04/20 09:07:44;;;;;;;4.68;3.40;;;12.80;53.30;;;13.04;40.79;100299.03;5014224;28;20944;-77
2022/04/20 09:10:11;;;;;;;4.10;3.13;;;12.80;53.30;;;13.13;40.69;100305.78;5026415;28;20041;-79
2022/04/20 09:12:44;;;;;;;5.90;3.50;;;12.90;53.10;;;13.21;40.03;100302.88;5026887;28;20076;-78
2022/04/20 09:15:15;;;;;;;4.13;2.95;;;12.90;52.60;;;13.30;39.80;100314.88;5006347;28;20053;-76
2022/04/20 09:17:45;;;;;;;3.53;3.22;;;13.00;52.40;;;13.31;38.65;100296.31;5011725;28;20049;-77
2022/04/20 09:20:18;;;;;;;4.22;2.97;;;13.10;51.30;;;13.43;38.69;100295.03;5001174;28;20065;-77
2022/04/20 09:23:07;;;;;;;5.03;3.22;;;13.10;51.30;;;13.50;38.09;100293.00;5016892;28;20029;-77
2022/04/20 09:25:46;;;;;;;4.38;3.03;;;13.20;50.90;;;13.55;37.79;100296.38;5024501;28;20037;-77
2022/04/20 09:28:13;;;;;;;4.80;3.28;;;13.30;50.40;;;13.66;37.94;100290.66;5024660;28;20041;-77
2022/04/20 09:30:42;;;;;;;5.10;2.80;;;13.90;51.30;;;13.80;36.27;100283.97;5021046;28;20038;-75
2022/04/20 09:33:10;;;;;;;8.45;2.90;;;13.50;49.20;;;13.75;36.69;100297.38;5026192;28;20049;-74
2022/04/20 09:35:50;;;;;;;9.00;3.15;;;13.50;49.20;;;13.81;37.01;100291.00;5021127;28;20411;-73
2022/04/20 09:38:23;;;;;;;4.30;3.28;;;13.50;49.20;;;13.85;37.25;100284.66;5016848;28;20045;-73
2022/04/20 09:41:09;;;;;;;4.03;2.72;;;13.60;49.70;;;14.03;35.53;100283.09;5012240;28;20061;-73
2022/04/20 09:43:38;;;;;;;3.83;2.70;;;13.70;48.40;;;14.28;35.18;100292.66;5022701;28;20050;-72
2022/04/20 09:49:10;;;;;;;3.13;2.30;;;14.00;48.70;;;14.97;34.97;100288.94;5010743;28;20149;-74
2022/04/20 09:51:41;;;;;;;3.30;2.50;;;14.30;49.00;;;14.97;32.62;100296.00;5039402;28;20124;-74
2022/04/20 09:54:26;;;;;;;5.63;2.80;;;14.60;46.10;;;14.98;32.39;100285.34;5013580;28;20792;-74
2022/04/20 09:57:11;;;;;;;3.03;2.13;;;14.70;45.60;;;15.00;32.19;100286.16;5017616;28;20068;-74
2022/04/20 10:00:04;;;;;;;2.65;2.45;;;14.80;45.20;;;15.20;32.09;100292.34;5009678;28;20053;-76
2022/04/20 10:02:56;;;;;;;4.30;2.53;;;14.90;45.10;;;15.17;31.58;100282.75;5011599;28;20084;-74
2022/04/20 10:05:24;;;;;;;3.80;2.35;;;14.90;44.40;;;15.13;30.64;100281.16;5020153;28;20041;-75
2022/04/20 10:07:54;;;;;;;5.70;2.97;;;14.90;43.60;;;15.10;31.36;100281.28;5023739;28;20037;-74
2022/04/20 10:10:23;;;;;;;4.72;2.50;;;14.90;43.80;;;15.15;31.80;100278.44;5030552;28;20033;-75
2022/04/20 10:12:54;;;;;;;4.93;2.22;;;15.20;44.50;;;15.27;31.69;100271.72;5039316;28;20045;-78
2022/04/20 10:18:20;;;;;;;4.93;2.42;;;15.00;44.40;;;15.32;32.52;100262.63;5026285;28;20041;-76
2022/04/20 10:20:50;;;;;;;2.17;1.98;;;15.00;44.80;;;15.27;31.42;100246.09;5022428;28;20067;-76
2022/04/20 10:23:21;;;;;;;4.55;2.03;;;15.00;43.80;;;15.47;32.04;100249.63;5023243;28;20569;-76
2022/04/20 10:25:51;;;;;;;3.53;2.13;;;15.10;44.60;;;15.50;31.96;100244.16;5026641;28;20045;-76
2022/04/20 10:28:29;;;;;;;2.55;2.15;;;15.20;44.50;;;15.51;30.91;100245.88;5026152;28;21190;-75
2022/04/20 10:31:34;;;;;;;4.20;2.25;;;15.30;43.60;;;15.61;31.21;100249.00;5024339;28;20037;-75
2022/04/20 10:34:05;;;;;;;3.50;2.45;;;15.30;43.40;;;15.69;30.27;100244.16;5015361;28;20053;-76
2022/04/20 10:36:59;;;;;;;3.88;2.85;;;15.40;42.80;;;15.82;29.80;100248.88;5013240;28;20053;-75
2022/04/20 10:39:36;;;;;;;2.50;2.30;;;15.50;42.40;;;15.93;30.73;100240.44;5035582;28;20082;-76
2022/04/20 10:42:12;;;;;;;2.90;2.50;;;15.60;43.30;;;16.08;30.83;100228.19;5022486;28;20166;-77
2022/04/20 10:44:52;;;;;;;2.78;2.22;;;15.70;43.40;;;16.16;31.20;100231.34;5025855;28;20046;-77
2022/04/20 10:47:24;;;;;;;2.65;2.38;;;15.80;43.70;;;16.19;31.06;100227.69;5026190;28;20043;-77
2022/04/20 10:49:52;;;;;;;3.28;2.50;;;15.80;43.50;;;16.20;31.58;100219.63;5024952;28;20052;-75
2022/04/20 10:52:40;;;;;;;5.93;2.15;;;15.90;43.90;;;16.54;31.06;100219.72;5026877;28;20133;-76
2022/04/20 10:55:10;;;;;;;;;;;16.00;44.30;;;16.68;31.40;100213.69;5022649;28;20038;-76
2022/04/20 10:57:42;;;;;;;4.20;2.13;;;16.10;44.10;;;16.63;30.01;100208.66;5031471;28;19936;-76
2022/04/20 11:00:21;;;;;;;4.00;2.28;;;16.30;42.50;;;16.87;30.37;100205.63;5019028;28;20165;-76
2022/04/20 11:03:00;;;;;;;3.75;2.42;;;16.40;43.10;;;16.82;29.74;100207.69;5019420;28;20464;-75
2022/04/20 11:05:27;;;;;;;2.58;2.28;;;16.50;42.30;;;16.95;30.33;100200.78;5020898;28;20046;-75
2022/04/20 11:08:12;;;;;;;4.72;2.67;;;16.60;43.00;;;16.93;29.44;100194.66;5027716;28;20235;-78
2022/04/20 11:18:38;;;;;;;3.95;2.40;;;16.60;42.10;;;16.97;29.57;100190.91;5025834;28;20041;-76
2022/04/20 11:20:09;;;;;;;3.80;2.85;;;16.90;42.40;;;17.49;29.27;100197.00;5009378;28;20049;-76
2022/04/20 11:22:46;;;;;;;3.95;2.88;;;17.10;42.00;;;17.44;29.84;100193.75;5029639;28;20168;-75
2022/04/20 11:25:13;;;;;;;4.82;2.70;;;17.20;42.50;;;17.54;29.64;100186.09;5014292;28;20066;-75